sensor_id;sensor_type;location;lat;lon;timestamp;pressure;altitude;pressure_sealevel;temperature;humidity
59987;BME280;46181;51.498;5.392;2022-07-23T00:04:05;101752.1;;;21.13;57.24902
59987;BME280;46181;51.498;5.392;2022-07-23T00:08:35;101755.5;;;21.11;57.32813
59987;BME280;46181;51.498;5.392;2022-07-23T00:13:05;101755;;;21.06;57.37891
59987;BME280;46181;51.498;5.392;2022-07-23T00:17:35;101749.6;;;21;57.6123
59987;BME280;46181;51.498;5.392;2022-07-23T00:22:05;101748.2;;;20.96;57.59766
59987;BME280;46181;51.498;5.392;2022-07-23T00:26:35;101752.3;;;20.93;57.74414
59987;BME280;46181;51.498;5.392;2022-07-23T00:31:05;101747.8;;;20.93;57.59277
59987;BME280;46181;51.498;5.392;2022-07-23T00:35:36;101753.6;;;20.86;57.72168
59987;BME280;46181;51.498;5.392;2022-07-23T00:40:05;101749.4;;;20.84;57.67383
59987;BME280;46181;51.498;5.392;2022-07-23T00:44:35;101747;;;20.76;57.84766
59987;BME280;46181;51.498;5.392;2022-07-23T00:49:05;101741.5;;;20.74;58.00684
59987;BME280;46181;51.498;5.392;2022-07-23T00:53:35;101746.2;;;20.68;57.95215
59987;BME280;46181;51.498;5.392;2022-07-23T00:58:06;101746.1;;;20.64;58.00391
59987;BME280;46181;51.498;5.392;2022-07-23T01:02:35;101743.4;;;20.59;58.02148
59987;BME280;46181;51.498;5.392;2022-07-23T01:07:05;101742.6;;;20.53;58.31348
59987;BME280;46181;51.498;5.392;2022-07-23T01:11:36;101738.3;;;20.5;58.49414
59987;BME280;46181;51.498;5.392;2022-07-23T01:16:05;101742.1;;;20.49;58.2959
59987;BME280;46181;51.498;5.392;2022-07-23T01:20:35;101726.6;;;20.44;58.12793
59987;BME280;46181;51.498;5.392;2022-07-23T01:25:05;101729.3;;;20.39;58.05371
59987;BME280;46181;51.498;5.392;2022-07-23T01:29:35;101734.9;;;20.33;58.11426
59987;BME280;46181;51.498;5.392;2022-07-23T01:34:05;101736.4;;;20.3;58.31738
59987;BME280;46181;51.498;5.392;2022-07-23T01:38:35;101728.9;;;20.25;58.47168
59987;BME280;46181;51.498;5.392;2022-07-23T01:43:05;101731.5;;;20.22;58.49121
59987;BME280;46181;51.498;5.392;2022-07-23T01:47:35;101727.4;;;20.17;58.47363
59987;BME280;46181;51.498;5.392;2022-07-23T01:52:05;101727.9;;;20.09;58.87793
59987;BME280;46181;51.498;5.392;2022-07-23T01:56:35;101726.5;;;20.05;58.88281
59987;BME280;46181;51.498;5.392;2022-07-23T02:01:05;101723.2;;;20.01;58.78613
59987;BME280;46181;51.498;5.392;2022-07-23T02:05:35;101725.8;;;20;58.76074
59987;BME280;46181;51.498;5.392;2022-07-23T02:10:05;101727.3;;;19.93;58.7168
59987;BME280;46181;51.498;5.392;2022-07-23T02:14:35;101725.6;;;19.86;58.98535
59987;BME280;46181;51.498;5.392;2022-07-23T02:19:05;101717;;;19.82;59.17383
59987;BME280;46181;51.498;5.392;2022-07-23T02:23:35;101719.4;;;19.79;59.19238
59987;BME280;46181;51.498;5.392;2022-07-23T02:28:05;101724.8;;;19.79;59.19238
59987;BME280;46181;51.498;5.392;2022-07-23T02:32:35;101722;;;19.75;59.14258
59987;BME280;46181;51.498;5.392;2022-07-23T02:37:05;101712.4;;;19.69;59.29492
59987;BME280;46181;51.498;5.392;2022-07-23T02:41:35;101715.3;;;19.67;59.33691
59987;BME280;46181;51.498;5.392;2022-07-23T02:46:05;101720.4;;;19.59;59.36328
59987;BME280;46181;51.498;5.392;2022-07-23T02:50:35;101725.4;;;19.52;59.70996
59987;BME280;46181;51.498;5.392;2022-07-23T02:55:05;101728.7;;;19.48;59.72656
59987;BME280;46181;51.498;5.392;2022-07-23T02:59:35;101732.2;;;19.49;59.80762
59987;BME280;46181;51.498;5.392;2022-07-23T03:04:05;101729;;;19.45;59.90527
59987;BME280;46181;51.498;5.392;2022-07-23T03:08:35;101728;;;19.4;59.95703
59987;BME280;46181;51.498;5.392;2022-07-23T03:13:05;101737.4;;;19.36;60.08984
59987;BME280;46181;51.498;5.392;2022-07-23T03:17:35;101733.1;;;19.32;59.76172
59987;BME280;46181;51.498;5.392;2022-07-23T03:22:05;101738.7;;;19.3;59.94336
59987;BME280;46181;51.498;5.392;2022-07-23T03:26:35;101741.5;;;19.25;59.86816
59987;BME280;46181;51.498;5.392;2022-07-23T03:31:05;101744.1;;;19.19;59.89453
59987;BME280;46181;51.498;5.392;2022-07-23T03:35:35;101747.9;;;19.16;60.08594
59987;BME280;46181;51.498;5.392;2022-07-23T03:40:05;101747.4;;;19.13;60.04688
59987;BME280;46181;51.498;5.392;2022-07-23T03:44:35;101750.2;;;19.08;59.85645
59987;BME280;46181;51.498;5.392;2022-07-23T03:49:05;101749.8;;;19.04;59.72559
59987;BME280;46181;51.498;5.392;2022-07-23T03:53:35;101747.6;;;18.99;59.68457
59987;BME280;46181;51.498;5.392;2022-07-23T03:58:05;101750.5;;;18.95;59.70117
59987;BME280;46181;51.498;5.392;2022-07-23T04:02:35;101750.1;;;18.91;60.02734
59987;BME280;46181;51.498;5.392;2022-07-23T04:07:05;101748.7;;;18.89;60.19727
59987;BME280;46181;51.498;5.392;2022-07-23T04:11:35;101756;;;18.91;60.23438
59987;BME280;46181;51.498;5.392;2022-07-23T04:16:05;101759.8;;;18.91;60.15332
59987;BME280;46181;51.498;5.392;2022-07-23T04:20:35;101760.9;;;18.9;60.30273
59987;BME280;46181;51.498;5.392;2022-07-23T04:25:05;101767;;;18.94;60.16992
59987;BME280;46181;51.498;5.392;2022-07-23T04:29:35;101774.4;;;18.99;60.28027
59987;BME280;46181;51.498;5.392;2022-07-23T04:34:05;101779.1;;;19.05;60.3584
59987;BME280;46181;51.498;5.392;2022-07-23T04:38:35;101784.6;;;19.16;60.24512
59987;BME280;46181;51.498;5.392;2022-07-23T04:43:05;101783.3;;;19.25;60.35059
59987;BME280;46181;51.498;5.392;2022-07-23T04:47:35;101786.6;;;19.36;60.31836
59987;BME280;46181;51.498;5.392;2022-07-23T04:52:05;101790;;;19.51;60.28125
59987;BME280;46181;51.498;5.392;2022-07-23T04:56:35;101790.7;;;19.65;60.20801
59987;BME280;46181;51.498;5.392;2022-07-23T05:01:05;101793.3;;;19.79;60.19238
59987;BME280;46181;51.498;5.392;2022-07-23T05:05:35;101791.3;;;19.93;59.91309
59987;BME280;46181;51.498;5.392;2022-07-23T05:10:05;101789.9;;;20.08;59.8291
59987;BME280;46181;51.498;5.392;2022-07-23T05:14:35;101790.9;;;20.23;59.41309
59987;BME280;46181;51.498;5.392;2022-07-23T05:19:05;101792.3;;;20.35;59.33691
59987;BME280;46181;51.498;5.392;2022-07-23T05:23:35;101799.2;;;20.55;59.22559
59987;BME280;46181;51.498;5.392;2022-07-23T05:28:05;101800.5;;;21.3;58.24121
59987;BME280;46181;51.498;5.392;2022-07-23T05:32:35;101799.3;;;21.64;56.83008
59987;BME280;46181;51.498;5.392;2022-07-23T05:37:05;101803.3;;;21.4;56.38379
59987;BME280;46181;51.498;5.392;2022-07-23T05:41:35;101805.9;;;21.37;56.76172
59987;BME280;46181;51.498;5.392;2022-07-23T05:46:05;101806.3;;;21.42;56.6748
59987;BME280;46181;51.498;5.392;2022-07-23T05:50:35;101810.8;;;21.57;56.4043
59987;BME280;46181;51.498;5.392;2022-07-23T05:55:05;101821.1;;;22.01;56.87793
59987;BME280;46181;51.498;5.392;2022-07-23T05:59:35;101826.6;;;23.24;54.85352
59987;BME280;46181;51.498;5.392;2022-07-23T06:04:05;101832;;;24.53;52.03223
59987;BME280;46181;51.498;5.392;2022-07-23T06:08:35;101830;;;25.57;49.375
59987;BME280;46181;51.498;5.392;2022-07-23T06:13:05;101835.2;;;26.06;46.84375
59987;BME280;46181;51.498;5.392;2022-07-23T06:17:35;101835.1;;;25.98;46.23828
59987;BME280;46181;51.498;5.392;2022-07-23T06:22:05;101829.6;;;25.87;46.47363
59987;BME280;46181;51.498;5.392;2022-07-23T06:26:35;101832.3;;;25.19;47.46582
59987;BME280;46181;51.498;5.392;2022-07-23T06:31:05;101833.4;;;24.44;47.65527
59987;BME280;46181;51.498;5.392;2022-07-23T06:35:35;101832.7;;;23.97;49.04883
59987;BME280;46181;51.498;5.392;2022-07-23T06:40:05;101840;;;23.95;49.39453
59987;BME280;46181;51.498;5.392;2022-07-23T06:44:35;101844.3;;;23.97;49.16504
59987;BME280;46181;51.498;5.392;2022-07-23T06:49:05;101847.3;;;23.74;48.83691
59987;BME280;46181;51.498;5.392;2022-07-23T06:53:35;101845.8;;;23.82;49.72949
59987;BME280;46181;51.498;5.392;2022-07-23T06:58:05;101847.2;;;24.04;49.37109
59987;BME280;46181;51.498;5.392;2022-07-23T07:02:35;101844.6;;;24.17;48.81543
59987;BME280;46181;51.498;5.392;2022-07-23T07:07:05;101840.9;;;24.25;48.6123
59987;BME280;46181;51.498;5.392;2022-07-23T07:11:35;101844.9;;;24.35;48.25098
59987;BME280;46181;51.498;5.392;2022-07-23T07:16:06;101839.9;;;24.27;47.34473
59987;BME280;46181;51.498;5.392;2022-07-23T07:20:35;101841.6;;;24.33;47.3877
59987;BME280;46181;51.498;5.392;2022-07-23T07:25:06;101848.3;;;24.5;47.46387
59987;BME280;46181;51.498;5.392;2022-07-23T07:29:35;101852.1;;;24.5;46.85742
59987;BME280;46181;51.498;5.392;2022-07-23T07:34:05;101856.4;;;24.6;46.45996
59987;BME280;46181;51.498;5.392;2022-07-23T07:38:35;101862.3;;;24.69;46.37598
59987;BME280;46181;51.498;5.392;2022-07-23T07:43:05;101855.8;;;24.91;46.09473
59987;BME280;46181;51.498;5.392;2022-07-23T07:47:35;101857.5;;;25.22;45.75195
59987;BME280;46181;51.498;5.392;2022-07-23T07:52:05;101860.5;;;25.35;44.57422
59987;BME280;46181;51.498;5.392;2022-07-23T07:56:35;101854.7;;;25.07;44.24121
59987;BME280;46181;51.498;5.392;2022-07-23T08:01:05;101856.9;;;25.26;45.55762
59987;BME280;46181;51.498;5.392;2022-07-23T08:05:36;101858.3;;;25.73;44.82227
59987;BME280;46181;51.498;5.392;2022-07-23T08:10:05;101857.1;;;26.15;43.93848
59987;BME280;46181;51.498;5.392;2022-07-23T08:14:35;101858.1;;;26.26;43.1875
59987;BME280;46181;51.498;5.392;2022-07-23T08:19:08;101857.2;;;26.44;42.8418
59987;BME280;46181;51.498;5.392;2022-07-23T08:23:35;101864.4;;;26.39;42.19238
59987;BME280;46181;51.498;5.392;2022-07-23T08:28:07;101870;;;26.42;41.26855
59987;BME280;46181;51.498;5.392;2022-07-23T08:32:35;101872.6;;;26.63;41.7207
59987;BME280;46181;51.498;5.392;2022-07-23T08:37:05;101878.8;;;26.92;40.79785
59987;BME280;46181;51.498;5.392;2022-07-23T08:41:35;101881.3;;;27.02;40.75977
59987;BME280;46181;51.498;5.392;2022-07-23T08:46:06;101884.1;;;27.32;40.30469
59987;BME280;46181;51.498;5.392;2022-07-23T08:50:36;101887.7;;;27.52;39.91113
59987;BME280;46181;51.498;5.392;2022-07-23T08:55:06;101883.8;;;27.5;39.67383
59987;BME280;46181;51.498;5.392;2022-07-23T08:59:35;101891;;;27.46;39.95313
59987;BME280;46181;51.498;5.392;2022-07-23T09:04:05;101886.2;;;27.63;40.02637
59987;BME280;46181;51.498;5.392;2022-07-23T09:08:43;101884.1;;;27.77;39.66309
59987;BME280;46181;51.498;5.392;2022-07-23T09:13:05;101880.9;;;27.93;39.16992
59987;BME280;46181;51.498;5.392;2022-07-23T09:17:40;101873.3;;;28.13;38.87012
59987;BME280;46181;51.498;5.392;2022-07-23T09:22:25;101860.7;;;28.06;39.2168
59987;BME280;46181;51.498;5.392;2022-07-23T09:26:38;101859.8;;;28.03;38.69629
59987;BME280;46181;51.498;5.392;2022-07-23T09:31:05;101868;;;27.99;38.77539
59987;BME280;46181;51.498;5.392;2022-07-23T09:35:52;101874.3;;;27.83;38.50293
59987;BME280;46181;51.498;5.392;2022-07-23T09:40:13;101878.3;;;27.77;39.35742
59987;BME280;46181;51.498;5.392;2022-07-23T09:44:35;101881.9;;;27.86;38.9873
59987;BME280;46181;51.498;5.392;2022-07-23T09:49:10;101879.9;;;27.8;39.21777
59987;BME280;46181;51.498;5.392;2022-07-23T09:53:38;101877.9;;;28.16;38.47168
59987;BME280;46181;51.498;5.392;2022-07-23T09:58:05;101882;;;28.23;38.04102
59987;BME280;46181;51.498;5.392;2022-07-23T10:02:37;101881.7;;;28.32;37.33008
59987;BME280;46181;51.498;5.392;2022-07-23T10:07:07;101881.7;;;28.32;37.71875
59987;BME280;46181;51.498;5.392;2022-07-23T10:11:36;101877.7;;;28.57;37.52734
59987;BME280;46181;51.498;5.392;2022-07-23T10:16:05;101886.3;;;28.82;36.47363
59987;BME280;46181;51.498;5.392;2022-07-23T10:20:35;101881.7;;;28.7;36.29883
59987;BME280;46181;51.498;5.392;2022-07-23T10:25:14;101881;;;28.81;37.15723
59987;BME280;46181;51.498;5.392;2022-07-23T10:29:45;101888.5;;;28.99;36.93555
59987;BME280;46181;51.498;5.392;2022-07-23T10:34:11;101883.5;;;29.06;36.75293
59987;BME280;46181;51.498;5.392;2022-07-23T10:38:40;101886.6;;;29.28;36.86621
59987;BME280;46181;51.498;5.392;2022-07-23T10:43:13;101884.7;;;29.22;35.58496
59987;BME280;46181;51.498;5.392;2022-07-23T10:47:37;101879.5;;;29.18;36.24316
59987;BME280;46181;51.498;5.392;2022-07-23T10:52:21;101879.3;;;29.43;34.80957
59987;BME280;46181;51.498;5.392;2022-07-23T10:57:04;101875.8;;;29.06;34.91016
59987;BME280;46181;51.498;5.392;2022-07-23T11:01:05;101879.8;;;29.07;35.86816
59987;BME280;46181;51.498;5.392;2022-07-23T11:05:47;101882.1;;;29.22;35.27637
59987;BME280;46181;51.498;5.392;2022-07-23T11:10:06;101876.6;;;29.54;35.60938
59987;BME280;46181;51.498;5.392;2022-07-23T11:19:10;101867.8;;;30.19;35.34082
59987;BME280;46181;51.498;5.392;2022-07-23T11:24:03;101864.9;;;30.62;34.98242
59987;BME280;46181;51.498;5.392;2022-07-23T11:28:17;101861.3;;;30.88;33.85156
59987;BME280;46181;51.498;5.392;2022-07-23T11:32:46;101862.4;;;30.73;33.43652
59987;BME280;46181;51.498;5.392;2022-07-23T11:37:06;101860.7;;;30.64;32.97949
59987;BME280;46181;51.498;5.392;2022-07-23T11:41:45;101862.8;;;30.45;32.98926
59987;BME280;46181;51.498;5.392;2022-07-23T11:46:09;101859.6;;;30.46;33.3584
59987;BME280;46181;51.498;5.392;2022-07-23T11:50:36;101861.8;;;30.63;32.38477
59987;BME280;46181;51.498;5.392;2022-07-23T11:55:08;101859.1;;;30.79;32.93164
59987;BME280;46181;51.498;5.392;2022-07-23T11:59:37;101858.6;;;31.02;31
59987;BME280;46181;51.498;5.392;2022-07-23T12:04:05;101853.4;;;31.23;29.9082
59987;BME280;46181;51.498;5.392;2022-07-23T12:08:35;101857.3;;;31.46;30.68457
59987;BME280;46181;51.498;5.392;2022-07-23T12:13:08;101852.7;;;31.6;30.5625
59987;BME280;46181;51.498;5.392;2022-07-23T12:17:41;101854.8;;;31.68;30.27051
59987;BME280;46181;51.498;5.392;2022-07-23T12:22:06;101852;;;31.51;30.41406
59987;BME280;46181;51.498;5.392;2022-07-23T12:26:36;101848.5;;;31.62;30.08789
59987;BME280;46181;51.498;5.392;2022-07-23T12:31:06;101844;;;31.79;29.68262
59987;BME280;46181;51.498;5.392;2022-07-23T12:35:40;101835.9;;;32;29.8877
59987;BME280;46181;51.498;5.392;2022-07-23T12:44:35;101825.6;;;32.08;29.24902
59987;BME280;46181;51.498;5.392;2022-07-23T12:49:05;101825.1;;;32.18;29.43359
59987;BME280;46181;51.498;5.392;2022-07-23T12:53:37;101829.2;;;32.38;29.4707
59987;BME280;46181;51.498;5.392;2022-07-23T12:58:13;101829.7;;;32.54;29.0752
59987;BME280;46181;51.498;5.392;2022-07-23T13:07:06;101830.9;;;32.51;28.88184
59987;BME280;46181;51.498;5.392;2022-07-23T13:11:35;101835.7;;;32.19;28.68359
59987;BME280;46181;51.498;5.392;2022-07-23T13:16:06;101832.7;;;32.19;28.95703
59987;BME280;46181;51.498;5.392;2022-07-23T13:20:35;101831.5;;;32.07;28.97363
59987;BME280;46181;51.498;5.392;2022-07-23T13:25:06;101833.8;;;32.2;29.35156
59987;BME280;46181;51.498;5.392;2022-07-23T13:29:35;101824.6;;;32.43;29.35449
59987;BME280;46181;51.498;5.392;2022-07-23T13:34:06;101819.4;;;32.72;29.40918
59987;BME280;46181;51.498;5.392;2022-07-23T13:38:35;101819.9;;;32.97;29.17383
59987;BME280;46181;51.498;5.392;2022-07-23T13:43:06;101810.4;;;33.22;28.7959
59987;BME280;46181;51.498;5.392;2022-07-23T13:47:35;101805.4;;;33.29;27.92773
59987;BME280;46181;51.498;5.392;2022-07-23T13:52:05;101801.5;;;33.22;27.55273
59987;BME280;46181;51.498;5.392;2022-07-23T13:56:35;101803.4;;;33.39;27.8623
59987;BME280;46181;51.498;5.392;2022-07-23T14:01:05;101805.7;;;33.6;27.5166
59987;BME280;46181;51.498;5.392;2022-07-23T14:05:36;101805.5;;;33.57;27.52637
59987;BME280;46181;51.498;5.392;2022-07-23T14:10:06;101813.1;;;33.74;27.45313
59987;BME280;46181;51.498;5.392;2022-07-23T14:14:35;101804.8;;;33.99;26.8457
59987;BME280;46181;51.498;5.392;2022-07-23T14:19:06;101809.8;;;34.31;26.68457
59987;BME280;46181;51.498;5.392;2022-07-23T14:23:35;101804.7;;;34.54;26.57715
59987;BME280;46181;51.498;5.392;2022-07-23T14:28:05;101807.3;;;34.83;26.1748
59987;BME280;46181;51.498;5.392;2022-07-23T14:32:36;101808.8;;;35.05;25.99512
59987;BME280;46181;51.498;5.392;2022-07-23T14:37:06;101806.6;;;35.19;25.61816
59987;BME280;46181;51.498;5.392;2022-07-23T14:41:35;101813.6;;;34.9;25.87891
59987;BME280;46181;51.498;5.392;2022-07-23T14:46:06;101809.9;;;34.81;25.8623
59987;BME280;46181;51.498;5.392;2022-07-23T14:50:36;101803.7;;;34.75;25.9541
59987;BME280;46181;51.498;5.392;2022-07-23T14:55:06;101802.2;;;34.62;26.09082
59987;BME280;46181;51.498;5.392;2022-07-23T14:59:36;101805.8;;;34.34;26.2666
59987;BME280;46181;51.498;5.392;2022-07-23T15:04:06;101806.9;;;34.14;26.68652
59987;BME280;46181;51.498;5.392;2022-07-23T15:08:35;101801.1;;;34.12;26.85352
59987;BME280;46181;51.498;5.392;2022-07-23T15:13:06;101800.8;;;34.07;26.89746
59987;BME280;46181;51.498;5.392;2022-07-23T15:17:36;101797.6;;;33.97;27.16699
59987;BME280;46181;51.498;5.392;2022-07-23T15:22:06;101795.2;;;33.99;27.55176
59987;BME280;46181;51.498;5.392;2022-07-23T15:26:36;101790.2;;;34.28;27.07813
59987;BME280;46181;51.498;5.392;2022-07-23T15:31:05;101786.1;;;34.24;27.05176
59987;BME280;46181;51.498;5.392;2022-07-23T15:35:36;101785.2;;;34.11;26.14551
59987;BME280;46181;51.498;5.392;2022-07-23T15:40:07;101781;;;34.07;26.3584
59987;BME280;46181;51.498;5.392;2022-07-23T15:44:36;101774.3;;;34.35;26.38672
59987;BME280;46181;51.498;5.392;2022-07-23T15:49:06;101777.2;;;34.74;26.09766
59987;BME280;46181;51.498;5.392;2022-07-23T15:53:36;101767.6;;;35.02;25.51367
59987;BME280;46181;51.498;5.392;2022-07-23T15:58:06;101769.6;;;35.52;25.7207
59987;BME280;46181;51.498;5.392;2022-07-23T16:02:36;101768.9;;;36.71;24.16016
59987;BME280;46181;51.498;5.392;2022-07-23T16:07:06;101768.6;;;38.12;22.5166
59987;BME280;46181;51.498;5.392;2022-07-23T16:11:36;101758.9;;;39.34;21.59375
59987;BME280;46181;51.498;5.392;2022-07-23T16:16:06;101761.4;;;38.8;21.25293
59987;BME280;46181;51.498;5.392;2022-07-23T16:20:36;101755;;;39.66;20.44238
59987;BME280;46181;51.498;5.392;2022-07-23T16:25:06;101755.3;;;39.14;20.2373
59987;BME280;46181;51.498;5.392;2022-07-23T16:29:36;101756.1;;;37.59;21.79004
59987;BME280;46181;51.498;5.392;2022-07-23T16:34:06;101747.6;;;36.49;22.89551
59987;BME280;46181;51.498;5.392;2022-07-23T16:38:36;101741.4;;;35.82;23.68066
59987;BME280;46181;51.498;5.392;2022-07-23T16:43:06;101740.1;;;35.27;24.43359
59987;BME280;46181;51.498;5.392;2022-07-23T16:47:36;101737.1;;;34.75;24.71777
59987;BME280;46181;51.498;5.392;2022-07-23T16:52:06;101736.7;;;34.49;25.4834
59987;BME280;46181;51.498;5.392;2022-07-23T16:56:36;101728.4;;;34.23;25.97266
59987;BME280;46181;51.498;5.392;2022-07-23T17:01:06;101731;;;33.95;26.31641
59987;BME280;46181;51.498;5.392;2022-07-23T17:05:36;101737.7;;;33.66;26.47949
59987;BME280;46181;51.498;5.392;2022-07-23T17:10:06;101733.4;;;33.39;27.14551
59987;BME280;46181;51.498;5.392;2022-07-23T17:14:36;101742.5;;;33.17;27.04785
59987;BME280;46181;51.498;5.392;2022-07-23T17:19:06;101739.2;;;32.86;27.39941
59987;BME280;46181;51.498;5.392;2022-07-23T17:23:36;101741.8;;;32.61;27.73145
59987;BME280;46181;51.498;5.392;2022-07-23T17:28:06;101739.1;;;32.39;27.8252
59987;BME280;46181;51.498;5.392;2022-07-23T17:32:36;101741.1;;;32.16;28.10938
59987;BME280;46181;51.498;5.392;2022-07-23T17:37:06;101740.3;;;31.94;28.39355
59987;BME280;46181;51.498;5.392;2022-07-23T17:41:36;101741.7;;;31.85;29.10352
59987;BME280;46181;51.498;5.392;2022-07-23T17:46:06;101750.6;;;31.76;29.19238
59987;BME280;46181;51.498;5.392;2022-07-23T17:50:36;101752;;;31.61;29.39746
59987;BME280;46181;51.498;5.392;2022-07-23T17:55:06;101752.8;;;31.44;29.81445
59987;BME280;46181;51.498;5.392;2022-07-23T17:59:36;101755.9;;;31.31;29.9248
59987;BME280;46181;51.498;5.392;2022-07-23T18:04:06;101752.9;;;31.15;30.38965
59987;BME280;46181;51.498;5.392;2022-07-23T18:08:36;101754.2;;;31;30.37988
59987;BME280;46181;51.498;5.392;2022-07-23T18:13:06;101754.3;;;30.88;30.7041
59987;BME280;46181;51.498;5.392;2022-07-23T18:17:36;101757.6;;;30.74;30.79102
59987;BME280;46181;51.498;5.392;2022-07-23T18:22:06;101750.1;;;30.62;31.03125
59987;BME280;46181;51.498;5.392;2022-07-23T18:26:36;101750.8;;;30.52;31.15527
59987;BME280;46181;51.498;5.392;2022-07-23T18:31:06;101751;;;30.33;31.09375
59987;BME280;46181;51.498;5.392;2022-07-23T18:35:36;101749.5;;;30.19;31.28613
59987;BME280;46181;51.498;5.392;2022-07-23T18:40:07;101755.3;;;30.1;31.55371
59987;BME280;46181;51.498;5.392;2022-07-23T18:44:36;101754.9;;;30.03;31.5957
59987;BME280;46181;51.498;5.392;2022-07-23T18:49:06;101749.8;;;29.98;32.06641
59987;BME280;46181;51.498;5.392;2022-07-23T18:53:36;101756.7;;;29.78;32.33691
59987;BME280;46181;51.498;5.392;2022-07-23T18:58:06;101761.5;;;29.64;33.22754
59987;BME280;46181;51.498;5.392;2022-07-23T19:02:36;101756.4;;;29.45;33.8877
59987;BME280;46181;51.498;5.392;2022-07-23T19:07:06;101749.9;;;29.28;34.53711
59987;BME280;46181;51.498;5.392;2022-07-23T19:11:36;101757.1;;;29.09;35.04199
59987;BME280;46181;51.498;5.392;2022-07-23T19:16:06;101763.5;;;28.93;35.46777
59987;BME280;46181;51.498;5.392;2022-07-23T19:20:36;101771.4;;;28.82;35.84766
59987;BME280;46181;51.498;5.392;2022-07-23T19:25:06;101772.4;;;28.72;36.15918
59987;BME280;46181;51.498;5.392;2022-07-23T19:29:36;101767.4;;;28.57;36.47754
59987;BME280;46181;51.498;5.392;2022-07-23T19:34:06;101770.8;;;28.42;36.75977
59987;BME280;46181;51.498;5.392;2022-07-23T19:38:36;101772.4;;;28.24;37.08789
59987;BME280;46181;51.498;5.392;2022-07-23T19:43:06;101775.5;;;28.09;37.44043
59987;BME280;46181;51.498;5.392;2022-07-23T19:47:36;101781.5;;;27.99;37.70215
59987;BME280;46181;51.498;5.392;2022-07-23T19:52:06;101787.4;;;27.87;37.97656
59987;BME280;46181;51.498;5.392;2022-07-23T19:56:36;101788.9;;;27.77;38.30957
59987;BME280;46181;51.498;5.392;2022-07-23T20:01:06;101790;;;27.7;38.47949
59987;BME280;46181;51.498;5.392;2022-07-23T20:05:36;101784.1;;;27.58;39.08203
59987;BME280;46181;51.498;5.392;2022-07-23T20:10:07;101787.6;;;27.5;39.33398
59987;BME280;46181;51.498;5.392;2022-07-23T20:14:36;101786.8;;;27.42;39.63184
59987;BME280;46181;51.498;5.392;2022-07-23T20:19:06;101796;;;27.29;39.7627
59987;BME280;46181;51.498;5.392;2022-07-23T20:23:36;101797;;;27.19;40.17578
59987;BME280;46181;51.498;5.392;2022-07-23T20:28:06;101795.3;;;27.13;40.52246
59987;BME280;46181;51.498;5.392;2022-07-23T20:32:36;101794.1;;;27.06;40.64551
59987;BME280;46181;51.498;5.392;2022-07-23T20:37:06;101799.1;;;26.96;41.00098
59987;BME280;46181;51.498;5.392;2022-07-23T20:41:36;101802.7;;;26.87;41.19238
59987;BME280;46181;51.498;5.392;2022-07-23T20:46:06;101799.9;;;26.74;41.54492
59987;BME280;46181;51.498;5.392;2022-07-23T20:50:36;101798.8;;;26.67;41.67871
59987;BME280;46181;51.498;5.392;2022-07-23T20:55:06;101804.6;;;26.56;41.91602
59987;BME280;46181;51.498;5.392;2022-07-23T20:59:36;101792.3;;;26.48;41.99023
59987;BME280;46181;51.498;5.392;2022-07-23T21:04:06;101797.5;;;26.43;41.83301
59987;BME280;46181;51.498;5.392;2022-07-23T21:08:36;101792.8;;;26.36;42.22461
59987;BME280;46181;51.498;5.392;2022-07-23T21:13:06;101790.6;;;26.25;42.30859
59987;BME280;46181;51.498;5.392;2022-07-23T21:17:36;101792.5;;;26.17;42.52344
59987;BME280;46181;51.498;5.392;2022-07-23T21:22:06;101795.7;;;26.09;42.78418
59987;BME280;46181;51.498;5.392;2022-07-23T21:26:36;101793.7;;;26;42.9873
59987;BME280;46181;51.498;5.392;2022-07-23T21:31:06;101797;;;25.94;43.23926
59987;BME280;46181;51.498;5.392;2022-07-23T21:35:36;101796.4;;;25.91;43.36523
59987;BME280;46181;51.498;5.392;2022-07-23T21:40:07;101796.6;;;25.86;43.58203
59987;BME280;46181;51.498;5.392;2022-07-23T21:44:36;101797.3;;;25.8;43.69336
59987;BME280;46181;51.498;5.392;2022-07-23T21:49:06;101798.7;;;25.76;43.74902
59987;BME280;46181;51.498;5.392;2022-07-23T21:53:36;101788.8;;;25.7;43.92969
59987;BME280;46181;51.498;5.392;2022-07-23T21:58:06;101790;;;25.62;44.0625
59987;BME280;46181;51.498;5.392;2022-07-23T22:02:36;101792.8;;;25.56;44.34961
59987;BME280;46181;51.498;5.392;2022-07-23T22:07:06;101789.1;;;25.48;44.64551
59987;BME280;46181;51.498;5.392;2022-07-23T22:11:36;101787.7;;;25.43;44.88574
59987;BME280;46181;51.498;5.392;2022-07-23T22:16:06;101787.7;;;25.33;45.14453
59987;BME280;46181;51.498;5.392;2022-07-23T22:20:36;101790.3;;;25.26;45.18457
59987;BME280;46181;51.498;5.392;2022-07-23T22:25:06;101781;;;25.17;45.29297
59987;BME280;46181;51.498;5.392;2022-07-23T22:29:36;101792.9;;;25.14;45.23047
59987;BME280;46181;51.498;5.392;2022-07-23T22:34:06;101784;;;25.09;45.22559
59987;BME280;46181;51.498;5.392;2022-07-23T22:38:36;101783.1;;;25.04;45.29102
59987;BME280;46181;51.498;5.392;2022-07-23T22:43:06;101776.7;;;25.02;45.32324
59987;BME280;46181;51.498;5.392;2022-07-23T22:47:36;101779.4;;;24.98;45.33105
59987;BME280;46181;51.498;5.392;2022-07-23T22:52:06;101776.8;;;24.95;45.38574
59987;BME280;46181;51.498;5.392;2022-07-23T22:56:36;101779.6;;;24.88;45.6123
59987;BME280;46181;51.498;5.392;2022-07-23T23:01:06;101789.6;;;24.87;45.70605
59987;BME280;46181;51.498;5.392;2022-07-23T23:05:36;101791.6;;;24.81;45.80371
59987;BME280;46181;51.498;5.392;2022-07-23T23:10:06;101791;;;24.74;46.03027
59987;BME280;46181;51.498;5.392;2022-07-23T23:14:36;101788.6;;;24.7;45.875
59987;BME280;46181;51.498;5.392;2022-07-23T23:19:06;101790.1;;;24.66;45.91699